Tiempo atmosférico en la estación meteorológica de Pola de Somiedo, Asturias (668 m.)



Fecha
DESCASC
Temp. máxima en grados centígrados (hora)
DESCASC
Temp. mínima en grados centígrados (hora)
DESCASC
Temp. media en grados centígrados
DESCASC
Racha de viento máxima en m/sg (hora)
DESCASC
Velocidad máxima media en intervalos de 10 minutos(hora)
DESCASC
Precipitaciones diarias en mm
DESCASC
Precipitaciones de 00:00 a 06:00 en mm
DESCASC
Precipitaciones de 06:00 a 12:00 en mm
DESCASC
Precipitaciones de 12:00 a 18:00 en mm
DESCASC
Precipitaciones de 18:00 a 24:00 en mm
DESCASC
22-01-2020 7.7 (06:20) 3.4 (00:00) 5.5 13.33 (06:30) 5.28 (06:10) 3.8 0 3.6 0 0.2
21-01-2020 5.3 (15:20) 2 (00:50) 3.7 6.39 (15:10) 2.78 (15:10) 0 0 0 0 0
20-01-2020 3.9 (13:30) 0.7 (10:20) 2.3 13.61 (13:00) 6.39 (12:50) 2.4 0.2 2 0.2 0
19-01-2020 6.3 (14:00) 3.3 (00:00) 4.8 12.22 (20:30) 4.72 (21:10) 8 6.8 1 0.2 0
18-01-2020 13.7 (13:10) 4.1 (00:00) 8.9 15.56 (11:20) 7.22 (13:20) 7.8 0 0.4 4.8 2.6
17-01-2020 9.5 (13:50) 3.5 (00:00) 6.5 8.61 (00:10) 2.78 (00:10) 7.6 6.2 1.2 0.2 0
16-01-2020 14.4 (13:30) 6.9 (00:00) 10.6 18.06 (02:20) 8.33 (02:20) 9.8 0 2.4 2.4 5
15-01-2020 13.8 (14:30) 7.7 (00:00) 10.8 21.94 (05:10) 8.06 (05:20) 5.8 1 4.6 0.2 0
14-01-2020 13 (14:20) 10.4 (00:00) 11.7 23.33 (16:00) 8.89 (19:00) 0 0 0 0 0
13-01-2020 14.2 (15:00) -0.2 (00:00) 7 15.83 (23:20) 6.11 (22:50) 0 0 0 0 0
12-01-2020 12.7 (14:30) -2.1 (-00:0) 5.3 2.78 (15:30) 1.67 (15:00) 0 0 0 0 0
11-01-2020 11.5 (14:50) -1.8 (-00:0) 4.9 1.67 (15:50) 1.11 (15:30) 0 0 0 0 0
10-01-2020 7.6 (15:10) -0.3 (00:00) 3.6 5.83 (01:50) 2.5 (16:00) 1 0.6 0.4 0 0
09-01-2020 16.6 (12:50) 3.8 (00:00) 10.2 14.17 (17:50) 5.83 (15:40) 2.6 0 0 2.6 0
08-01-2020 16 (14:40) 2 (00:00) 9 1.94 (19:20) 1.11 (02:50) 0 0 0 0 0
07-01-2020 14.5 (14:20) -1.6 (-00:0) 6.4 2.22 (03:10) 1.11 (17:00) 0 0 0 0 0
06-01-2020 10.2 (15:10) -1 (-00:0) 4.6 3.33 (12:10) 1.67 (12:10) 0 0 0 0 0
05-01-2020 11.3 (14:40) -3 (-00:0) 4.2 1.94 (14:20) -- (--) 0 0 0 0 0
04-01-2020 8.6 (14:40) -1.3 (-00:0) 3.7 3.61 (15:40) -- (--) 0 0 0 0 0
03-01-2020 10.8 (15:20) 0.7 (00:00) 5.8 6.11 (15:40) 2.5 (16:00) 1.6 0 1.6 0 0
02-01-2020 13.3 (14:40) -1.4 (-00:0) 6 2.5 (15:30) 1.11 (20:20) 0 0 0 0 0
01-01-2020 12.9 (14:30) -2.9 (-00:0) 5 2.78 (12:50) 1.39 (12:50) 0 0 0 0 0
31-12-2019 12.9 (14:40) -1 (-00:0) 5.9 2.78 (14:30) 1.39 (02:30) 0 0 0 0 0
30-12-2019 -- (--) -- (--) -- -- (--) -- (--) -- 0 0 0 --
29-12-2019 16.9 (14:10) 1 (00:00) 8.9 1.94 (17:50) 1.39 (17:00) 0 0 0 0 0
28-12-2019 16 (14:10) -0.1 (00:00) 7.9 2.78 (08:10) 1.39 (09:10) 0 0 0 0 0
27-12-2019 13.9 (14:40) -1.2 (-00:0) 6.3 2.22 (14:10) 1.39 (14:00) 0 0 0 0 0
26-12-2019 14.4 (00:30) -0.4 (00:00) 7 9.17 (00:40) 4.44 (03:30) 0 0 0 0 0
25-12-2019 18.2 (20:00) 4.7 (00:00) 11.5 16.94 (21:10) 6.11 (21:50) 0 0 0 0 0

Gráficas

Temp. máximas Temp. mínimas Temp. medias Precipitaciones Rachas de viento máximas Velocidades máximas media en intervalos de 10 minutos

Datos horarios

Fecha y hora oficial Temperatura (ºC) Velocidad del viento (km/h) Dirección del viento Racha (km/h) Dirección de racha Precipitación (mm) Presión (hPa) Tendencia (hPa) Humedad (%)
2020-01-23 23:00:00 1.9 2 Sur 6 Sur 0 -- -- 97
2020-01-23 22:00:00 2.1 0 Calma 5 Sudoeste 0 -- -- 96
2020-01-23 21:00:00 2.8 0 Calma 6 Sudeste 0 -- -- 93
2020-01-23 20:00:00 3.7 2 Sur 4 Sudeste 0 -- -- 91
2020-01-23 19:00:00 5.5 0 Calma 6 Sur 0 -- -- 85
2020-01-23 18:00:00 7.7 2 Noroeste 7 Sudoeste 0 -- -- 80
2020-01-23 17:00:00 9.4 3 Sudeste 8 Sudeste 0 -- -- 68
2020-01-23 16:00:00 10.2 6 Sudoeste 22 Sudoeste 0 -- -- 59
2020-01-23 15:00:00 11.5 9 Sur 22 Sur 0 -- -- 54
2020-01-23 14:00:00 10.3 8 Sur 23 Sur 0 -- -- 57
2020-01-23 13:00:00 10 10 Sur 28 Sudoeste 0 -- -- 58
2020-01-23 12:00:00 7.7 10 Sur 23 Sur 0 -- -- 66
2020-01-23 11:00:00 1.9 2 Norte 12 Nordeste 0 -- -- 100
2020-01-23 10:00:00 0.6 4 Norte 9 Norte 0 -- -- 100
2020-01-23 09:00:00 -0.4 3 Sur 5 Sudeste 0 -- -- 100
2020-01-23 08:00:00 -0.3 4 Sur 7 Sur 0 -- -- 100
2020-01-23 07:00:00 -0.2 3 Sur 5 Sur 0 -- -- 99
2020-01-23 06:00:00 0.7 2 Sur 6 Sur 0 -- -- 98
2020-01-23 05:00:00 1.9 3 Sudeste 6 Sudeste 0 -- -- 99
2020-01-23 04:00:00 2.2 3 Sur 9 Sur 0 -- -- 100
2020-01-23 03:00:00 1.9 2 Sur 4 Sur 0 -- -- 100
2020-01-23 02:00:00 1.2 3 Sudoeste 6 Sudeste 0 -- -- 99
2020-01-23 01:00:00 2.5 0 Calma 4 Sur 0 -- -- 97
2020-01-23 00:00:00 3.6 2 Sudoeste 4 Oeste 0.2 -- -- 98
2020-01-22 23:00:00 4.3 0 Calma 4 Oeste 0 -- -- 98
2020-01-22 22:00:00 4.6 0 Calma 5 Noroeste 0 -- -- 97
2020-01-22 21:00:00 4.9 0 Calma 10 Noroeste 0 -- -- 96
2020-01-22 20:00:00 5 4 Norte 10 Noroeste 0 -- -- 97
2020-01-22 19:00:00 5.3 0 Calma 7 Noroeste 0 -- -- 97
2020-01-22 18:00:00 5.5 5 Noroeste 10 Noroeste 0 -- -- 95
2020-01-22 17:00:00 5.8 3 Norte 6 Noroeste 0 -- -- 94
2020-01-22 16:00:00 6 2 Norte 10 Noroeste 0 -- -- 95
2020-01-22 15:00:00 6.2 4 Norte 14 Norte 0 -- -- 93
2020-01-22 14:00:00 6.1 5 Noroeste 10 Noroeste 0 -- -- 94
2020-01-22 13:00:00 6.4 3 Norte 6 Norte 0 -- -- 96
2020-01-22 12:00:00 6.3 0 Calma 8 Sudoeste 0.8 -- -- 98
2020-01-22 11:00:00 5.9 4 Sur 10 Norte 1 -- -- 97
2020-01-22 10:00:00 6.3 3 Norte 28 Noroeste 0.8 -- -- 91
2020-01-22 09:00:00 7.6 14 Noroeste 36 Norte 0.2 -- -- 80
2020-01-22 08:00:00 6.2 7 Norte 23 Noroeste 0.8 -- -- 90
2020-01-22 07:00:00 7.2 8 Noroeste 48 Oeste 0 -- -- 81
2020-01-22 06:00:00 7.3 17 Noroeste 37 Noroeste 0 -- -- 78
2020-01-22 05:00:00 6.3 9 Noroeste 26 Norte 0 -- -- 85
2020-01-22 04:00:00 4.5 3 Norte 12 Sur 0 -- -- 91
2020-01-22 03:00:00 4.3 3 Norte 18 Noroeste 0 -- -- 89
2020-01-22 02:00:00 3.9 6 Norte 13 Noroeste 0 -- -- 89
2020-01-22 01:00:00 3.5 2 Norte 8 Sur 0 -- -- 90
2020-01-22 00:00:00 3.4 4 Norte 9 Oeste 0 -- -- 88
2020-01-21 23:00:00 2.6 3 Sudeste 8 Sur 0 -- -- 92
2020-01-21 22:00:00 2.1 3 Sur 9 Noroeste 0 -- -- 92
2020-01-21 21:00:00 2.6 0 Calma 8 Sudoeste 0 -- -- 90
2020-01-21 20:00:00 3.6 0 Calma 13 Norte 0 -- -- 84
2020-01-21 19:00:00 4.3 3 Norte 19 Norte 0 -- -- 81
2020-01-21 18:00:00 4.7 5 Norte 13 Norte 0 -- -- 79
2020-01-21 17:00:00 4.9 6 Norte 23 Norte 0 -- -- 80
2020-01-21 16:00:00 5.1 6 Norte 23 Noroeste 0 -- -- 74
2020-01-21 15:00:00 5.1 6 Norte 13 Noroeste 0 -- -- 75
2020-01-21 14:00:00 4.5 4 Norte 11 Norte 0 -- -- 80
2020-01-21 13:00:00 4.5 10 Norte 18 Nordeste 0 -- -- 77
2020-01-21 12:00:00 4.5 7 Norte 18 Noroeste 0 -- -- 73
2020-01-21 11:00:00 4.3 4 Norte 13 Oeste 0 -- -- 73
2020-01-21 10:00:00 3.1 3 Oeste 8 Sudoeste 0 -- -- 81
2020-01-21 09:00:00 2.7 2 Norte 8 Oeste 0 -- -- 87
2020-01-21 08:00:00 3.2 4 Norte 13 Noroeste 0 -- -- 80
2020-01-21 07:00:00 3.1 5 Norte 14 Noroeste 0 -- -- 83
2020-01-21 06:00:00 2.8 2 Norte 14 Oeste 0 -- -- 86
2020-01-21 05:00:00 2.8 4 Sur 18 Oeste 0 -- -- 85
2020-01-21 04:00:00 3.1 4 Norte 11 Norte 0 -- -- 82
2020-01-21 03:00:00 2.9 4 Nordeste 9 Noroeste 0 -- -- 79
2020-01-21 02:00:00 2.9 3 Norte 18 Norte 0 -- -- 79
2020-01-21 01:00:00 2 3 Noroeste 6 Este 0 -- -- 84
2020-01-21 00:00:00 2.2 3 Noroeste 7 Noroeste 0 -- -- 81
2020-01-20 23:00:00 2.3 4 Sur 11 Norte 0 -- -- 80
2020-01-20 22:00:00 2.3 4 Norte 11 Nordeste 0 -- -- 77
2020-01-20 21:00:00 2.1 4 Norte 15 Noroeste 0 -- -- 77
2020-01-20 20:00:00 2 6 Norte 15 Norte 0 -- -- 75
2020-01-20 19:00:00 2.3 5 Norte 13 Nordeste 0 -- -- 74
2020-01-20 18:00:00 2.8 5 Noroeste 12 Norte 0 -- -- 71
2020-01-20 17:00:00 2.6 3 Oeste 12 Norte 0 -- -- 76
2020-01-20 16:00:00 3 7 Norte 27 Noroeste 0 -- -- 78
2020-01-20 15:00:00 3.5 13 Noroeste 28 Noroeste 0 -- -- 69
2020-01-20 14:00:00 3.6 12 Noroeste 40 Norte 0 -- -- 65
2020-01-20 13:00:00 3.6 22 Noroeste 49 Noroeste 0.2 -- -- 60
2020-01-20 12:00:00 2.8 11 Norte 26 Noroeste 0.4 -- -- 68
2020-01-20 11:00:00 1.4 8 Noroeste 24 Norte 0.8 -- -- 85
2020-01-20 10:00:00 1.2 0 Calma 20 Noroeste 0.4 -- -- 88
2020-01-20 09:00:00 1.8 5 Norte 23 Norte 0 -- -- 78
2020-01-20 08:00:00 1.4 5 Norte 30 Noroeste 0.4 -- -- 85
2020-01-20 07:00:00 2.6 12 Noroeste 30 Noroeste 0 -- -- 72
2020-01-20 06:00:00 2.5 10 Norte 41 Noroeste 0 -- -- 73
2020-01-20 05:00:00 2.9 11 Noroeste 41 Norte 0.2 -- -- 69
2020-01-20 04:00:00 2.3 10 Noroeste 33 Norte 0 -- -- 81
2020-01-20 03:00:00 3.3 10 Norte 30 Noroeste 0 -- -- 71
2020-01-20 02:00:00 3.5 11 Noroeste 34 Noroeste 0 -- -- 65
2020-01-20 01:00:00 3.5 11 Noroeste 31 Noroeste 0 -- -- 67
2020-01-20 00:00:00 3.3 9 Noroeste 33 Noroeste 0 -- -- 71
2020-01-19 23:00:00 3.9 11 Noroeste 44 Noroeste 0 -- -- 68
2020-01-19 22:00:00 4 15 Noroeste 44 Sudoeste 0 -- -- 66
2020-01-19 21:00:00 3.8 14 Noroeste 44 Noroeste 0 -- -- 65
2020-01-19 20:00:00 3.7 14 Noroeste 34 Noroeste 0 -- -- 65
2020-01-19 19:00:00 3.8 12 Noroeste 40 Noroeste 0 -- -- 66
2020-01-19 18:00:00 4 12 Norte 32 Noroeste 0 -- -- 69
2020-01-19 17:00:00 4.4 13 Noroeste 28 Noroeste 0.2 -- -- 70
2020-01-19 16:00:00 4.7 13 Norte 42 Noroeste 0 -- -- 77
2020-01-19 15:00:00 6.3 11 Norte 35 Norte 0 -- -- 62
2020-01-19 14:00:00 6.3 13 Noroeste 35 Noroeste 0 -- -- 67
2020-01-19 13:00:00 5.9 12 Noroeste 30 Oeste 0 -- -- 70
2020-01-19 12:00:00 4.9 9 Noroeste 31 Norte 0 -- -- 78
2020-01-19 11:00:00 3.8 4 Norte 10 Noroeste 0.6 -- -- 91
2020-01-19 10:00:00 4.7 5 Norte 21 Norte 0 -- -- 75
2020-01-19 09:00:00 4.5 6 Sur 25 Norte 0 -- -- 79
2020-01-19 08:00:00 5.2 9 Noroeste 29 Noroeste 0 -- -- 73
2020-01-19 07:00:00 5 10 Norte 25 Noroeste 0.4 -- -- 79
2020-01-19 06:00:00 4.8 6 Norte 28 Norte 1.4 -- -- 91
2020-01-19 05:00:00 5.9 12 Norte 31 Noroeste 1.4 -- -- 91
2020-01-19 04:00:00 5.9 8 Norte 17 Norte 2 -- -- 95
2020-01-19 03:00:00 5.1 4 Norte 9 Noroeste 1.6 -- -- 100
2020-01-19 02:00:00 4.9 0 Calma 5 Sudeste 0.4 -- -- 100
2020-01-19 01:00:00 4.8 2 Oeste 5 Sudoeste 0 -- -- 100
2020-01-19 00:00:00 4.8 0 Calma 5 Sudeste 0 -- -- 100
2020-01-18 23:00:00 4.8 0 Calma 3 Oeste 0.2 -- -- 99
2020-01-18 22:00:00 4.7 2 Norte 4 Sudeste 0.4 -- -- 99
2020-01-18 21:00:00 4.8 3 Sur 5 Sudoeste 0.4 -- -- 97
2020-01-18 20:00:00 5 2 Sur 9 Sudoeste 0.2 -- -- 95
2020-01-18 19:00:00 5.5 3 Norte 22 Nordeste 1.4 -- -- 93
2020-01-18 18:00:00 7.5 13 Nordeste 37 Sudeste 0.2 -- -- 72
2020-01-18 17:00:00 9.2 12 Nordeste 56 Nordeste 0 -- -- 57
2020-01-18 16:00:00 9.2 12 Este 37 Este 2.6 -- -- 72
2020-01-18 15:00:00 10 5 Norte 42 Sudeste 2 -- -- 89
2020-01-18 14:00:00 13.2 16 Sur 55 Sudeste 0 -- -- 57
2020-01-18 13:00:00 13.1 17 Sudeste 51 Sudeste 0 -- -- 59
2020-01-18 12:00:00 12.3 22 Sudeste 56 Este 0 -- -- 63
2020-01-18 11:00:00 11 15 Sur 55 Este 0.2 -- -- 65
2020-01-18 10:00:00 9.6 12 Sudeste 53 Sur 0 -- -- 67
2020-01-18 09:00:00 7.9 10 Sur 42 Sur 0 -- -- 68
2020-01-18 08:00:00 7.2 17 Sur 40 Sur 0.2 -- -- 69
2020-01-18 07:00:00 7.8 21 Sudoeste 49 Sudoeste 0 -- -- 63
2020-01-18 06:00:00 7.5 12 Sur 39 Sur 0 -- -- 61
2020-01-18 05:00:00 7.9 11 Sur 40 Sudeste 0 -- -- 51
2020-01-18 04:00:00 5.5 2 Norte 8 Noroeste 0 -- -- 71
2020-01-18 03:00:00 6.3 4 Norte 26 Sudoeste 0 -- -- 59
2020-01-18 02:00:00 7.6 9 Sur 21 Sur 0 -- -- 46
2020-01-18 01:00:00 6.7 5 Sur 22 Sudoeste 0 -- -- 57
2020-01-18 00:00:00 4.1 2 Norte 8 Oeste 0 -- -- 90
2020-01-17 23:00:00 4 0 Calma 5 Norte 0 -- -- 90
2020-01-17 22:00:00 3.8 4 Sur 7 Sudoeste 0 -- -- 90
2020-01-17 21:00:00 3.5 2 Sur 6 Sudoeste 0 -- -- 90
2020-01-17 20:00:00 3.7 0 Calma 4 Sudoeste 0 -- -- 90
2020-01-17 19:00:00 4.7 2 Sudoeste 5 Oeste 0 -- -- 84
2020-01-17 18:00:00 6.7 0 Calma 6 Sur 0 -- -- 74
2020-01-17 17:00:00 8.1 2 Sur 9 Sur 0 -- -- 65
2020-01-17 16:00:00 8.3 3 Oeste 15 Nordeste 0 -- -- 58
2020-01-17 15:00:00 9.2 6 Sur 15 Sudeste 0.2 -- -- 54
2020-01-17 14:00:00 9.5 8 Sur 18 Sur 0 -- -- 52
2020-01-17 13:00:00 8.9 5 Sur 15 Este 0 -- -- 53
2020-01-17 12:00:00 7.1 6 Nordeste 27 Este 0 -- -- 66
2020-01-17 11:00:00 4.7 2 Noroeste 16 Nordeste 0.8 -- -- 93
2020-01-17 10:00:00 4.6 5 Norte 11 Sudeste 0.2 -- -- 95
2020-01-17 09:00:00 4.2 3 Este 12 Sudeste 0 -- -- 96
2020-01-17 08:00:00 4.6 6 Sur 14 Sur 0.2 -- -- 96
2020-01-17 07:00:00 4.7 5 Oeste 11 Oeste 0 -- -- 96
2020-01-17 06:00:00 5 4 Sur 12 Sudoeste 1 -- -- 99
2020-01-17 05:00:00 5.1 2 Nordeste 10 Noroeste 1.4 -- -- 99
2020-01-17 04:00:00 4.9 4 Norte 9 Noroeste 0.8 -- -- 98
2020-01-17 03:00:00 5.6 3 Sudoeste 7 Sudeste 1.8 -- -- 97
2020-01-17 02:00:00 6.3 4 Sur 15 Oeste 1 -- -- 91
2020-01-17 01:00:00 7.9 6 Sur 31 Sudeste 0.2 -- -- 77
2020-01-17 00:00:00 8 8 Sur 25 Sudeste 0 -- -- 75
2020-01-16 23:00:00 7.5 3 Sur 20 Sur 1 -- -- 92
2020-01-16 22:00:00 8.2 3 Oeste 31 Sur 1 -- -- 87
2020-01-16 21:00:00 8 6 Noroeste 31 Sudeste 0.8 -- -- 95
2020-01-16 20:00:00 8.8 0 Calma 24 Sudeste 0.8 -- -- 92
2020-01-16 19:00:00 10 8 Sur 57 Sur 1.4 -- -- 75
2020-01-16 18:00:00 10.5 15 Sur 45 Sudoeste 1 -- -- 75
2020-01-16 17:00:00 11 11 Sur 40 Sudeste 1.2 -- -- 73
2020-01-16 16:00:00 12.3 22 Sur 55 Sudeste 0 -- -- 65
2020-01-16 15:00:00 13.7 16 Sur 55 Sudoeste 0 -- -- 59
2020-01-16 14:00:00 14.4 21 Sur 58 Sudoeste 0.2 -- -- 54
2020-01-16 13:00:00 14.2 21 Sur 48 Sudeste 0 -- -- 55
2020-01-16 12:00:00 14.2 21 Sur 59 Sur 0 -- -- 59
2020-01-16 11:00:00 12.7 10 Sur 31 Sur 0 -- -- 66
2020-01-16 10:00:00 13.6 18 Sudeste 49 Sudeste 0 -- -- 55
2020-01-16 09:00:00 13.1 16 Sur 45 Sudeste 0.2 -- -- 60
2020-01-16 08:00:00 11.4 6 Sudoeste 27 Sur 1 -- -- 79
2020-01-16 07:00:00 11.5 10 Sur 32 Sur 1.2 -- -- 80
2020-01-16 06:00:00 12.8 17 Sur 49 Sur 0 -- -- 69
2020-01-16 05:00:00 13.2 19 Sur 45 Sudeste 0 -- -- 57
2020-01-16 04:00:00 13.7 15 Sudeste 53 Sudeste 0 -- -- 53
2020-01-16 03:00:00 13.7 17 Sudeste 65 Sudeste 0 -- -- 55
2020-01-16 02:00:00 13.1 17 Sur 46 Sur 0 -- -- 62
2020-01-16 01:00:00 12.7 24 Sur 57 Sur 0 -- -- 65
2020-01-16 00:00:00 12.2 22 Sur 51 Sudoeste 0 -- -- 64
2020-01-15 23:00:00 11.8 15 Sur 44 Sur 0 -- -- 57
2020-01-15 22:00:00 12.3 12 Sur 36 Sur 0 -- -- 58
2020-01-15 21:00:00 11.2 12 Sur 30 Sur 0 -- -- 54
2020-01-15 20:00:00 11.3 12 Sur 36 Sudoeste 0 -- -- 59
2020-01-15 19:00:00 11.1 8 Sur 38 Sudeste 0 -- -- 62
2020-01-15 18:00:00 9.5 4 Sur 15 Sudeste 0 -- -- 66
2020-01-15 17:00:00 11 3 Sudoeste 31 Sudeste 0 -- -- 61
2020-01-15 16:00:00 11.9 8 Sur 23 Sudoeste 0 -- -- 56
2020-01-15 15:00:00 13.7 10 Sur 27 Sudeste 0.2 -- -- 51
2020-01-15 14:00:00 13.5 9 Sur 23 Sudeste 0 -- -- 56
2020-01-15 13:00:00 12.6 9 Sur 28 Sudoeste 0 -- -- 62
2020-01-15 12:00:00 9.8 16 Sudoeste 28 Sur 0 -- -- 74
2020-01-15 11:00:00 7.9 4 Norte 10 Sudoeste 0 -- -- 93
2020-01-15 10:00:00 8 7 Sur 19 Sudoeste 2 -- -- 82
2020-01-15 09:00:00 8.5 0 Calma 30 Sudeste 0.4 -- -- 91
2020-01-15 08:00:00 10.5 14 Sudeste 40 Sudeste 1.6 -- -- 75
2020-01-15 07:00:00 11 12 Sur 55 Este 0.6 -- -- 72
2020-01-15 06:00:00 12.3 21 Sur 79 Sudeste 0 -- -- 61
2020-01-15 05:00:00 11.8 20 Sur 74 Sudeste 0.4 -- -- 62
2020-01-15 04:00:00 10.6 19 Sur 46 Sudoeste 0.6 -- -- 71
2020-01-15 03:00:00 11.4 13 Sur 59 Sudeste 0 -- -- 63
2020-01-15 02:00:00 10.6 24 Sur 54 Sudoeste 0 -- -- 68
2020-01-15 01:00:00 11 23 Sur 65 Sudeste 0 -- -- 62
2020-01-15 00:00:00 11.9 24 Sudeste 67 Sur 0 -- -- 58
2020-01-14 23:00:00 11.5 22 Sudeste 70 Sudeste 0 -- -- 58
2020-01-14 22:00:00 11.8 20 Sudeste 64 Sudeste 0 -- -- 54
2020-01-14 21:00:00 12.3 30 Sudeste 81 Sudeste 0 -- -- 51
2020-01-14 20:00:00 11.7 18 Sur 58 Sudeste 0 -- -- 52
2020-01-14 19:00:00 11.4 32 Sudeste 61 Sudeste 0 -- -- 57
2020-01-14 18:00:00 11.9 17 Sudeste 64 Sudeste 0 -- -- 56
2020-01-14 17:00:00 12.1 24 Sur 56 Este 0 -- -- 55
2020-01-14 16:00:00 11.6 28 Sur 84 Sudeste 0 -- -- 55
2020-01-14 15:00:00 12.2 23 Sur 69 Sudeste 0 -- -- 54
2020-01-14 14:00:00 12.6 24 Sudeste 64 Sudeste 0 -- -- 50
2020-01-14 13:00:00 12.8 13 Sur 42 Sudoeste 0 -- -- 51
2020-01-14 12:00:00 11.6 19 Sur 57 Sudoeste 0 -- -- 56
2020-01-14 11:00:00 10.8 16 Sur 55 Sudoeste 0 -- -- 58
2020-01-14 10:00:00 10.9 12 Sur 42 Sur 0 -- -- 61
2020-01-14 09:00:00 11 15 Sudeste 46 Sudoeste 0 -- -- 63
2020-01-14 08:00:00 10.8 14 Sur 46 Sur 0 -- -- 65
2020-01-14 07:00:00 10.6 11 Sur 34 Sudeste 0 -- -- 66
2020-01-14 06:00:00 10.5 14 Sur 42 Sur 0 -- -- 63
2020-01-14 05:00:00 10.6 13 Sur 39 Sudeste 0 -- -- 62
2020-01-14 04:00:00 10.6 13 Sudeste 44 Sudoeste 0 -- -- 63
2020-01-14 03:00:00 10.5 13 Sur 37 Sudoeste 0 -- -- 61
2020-01-14 02:00:00 10.4 12 Sudeste 49 Sudeste 0 -- -- 60
2020-01-14 01:00:00 10.7 16 Sur 48 Sudeste 0 -- -- 57
2020-01-14 00:00:00 10.6 17 Sudeste 57 Sudeste 0 -- -- 55
2020-01-13 23:00:00 10.4 18 Sudeste 52 Sudeste 0 -- -- 56
2020-01-13 22:00:00 10.4 17 Sur 46 Sudeste 0 -- -- 56
2020-01-13 21:00:00 11 12 Sur 32 Sudeste 0 -- -- 51
2020-01-13 20:00:00 10.9 10 Sur 30 Sur 0 -- -- 50
2020-01-13 19:00:00 11.3 12 Sur 35 Sudeste 0 -- -- 44
2020-01-13 18:00:00 11.3 9 Sur 25 Sudeste 0 -- -- 42
2020-01-13 17:00:00 12.7 9 Sur 36 Sudeste 0 -- -- 40
2020-01-13 16:00:00 13.6 15 Sudeste 44 Sudeste 0 -- -- 36
2020-01-13 15:00:00 14.2 12 Sur 36 Sur 0 -- -- 34
2020-01-13 14:00:00 12.9 8 Sur 31 Sur 0 -- -- 42
2020-01-13 13:00:00 13.4 14 Sudoeste 29 Sudoeste 0 -- -- 41
2020-01-13 12:00:00 12.3 10 Sudoeste 21 Sudeste 0 -- -- 42
2020-01-13 11:00:00 7.3 4 Sur 13 Sur 0 -- -- 68
2020-01-13 10:00:00 4.2 3 Sur 7 Sur 0 -- -- 98
2020-01-13 09:00:00 2.1 0 Calma 8 Sudeste 0 -- -- 99
2020-01-13 08:00:00 1.9 3 Sur 9 Sur 0 -- -- 100
2020-01-13 07:00:00 1 2 Sur 6 Sur 0 -- -- 99
2020-01-13 06:00:00 0.8 0 Calma 6 Sur 0 -- -- 97
2020-01-13 05:00:00 0.7 3 Sur 8 Sur 0 -- -- 96
2020-01-13 04:00:00 0.6 2 Sur 6 Sudoeste 0 -- -- 95
2020-01-13 03:00:00 0.2 2 Sur 5 Sur 0 -- -- 97
2020-01-13 02:00:00 -0.2 0 Calma 5 Sur 0 -- -- 97
2020-01-13 01:00:00 0 2 Sur 6 Sudeste 0 -- -- 96
2020-01-13 00:00:00 0 0 Calma -- -- 0 -- -- 95
2020-01-12 23:00:00 0.4 0 Calma 6 Sur 0 -- -- 95
2020-01-12 22:00:00 0.7 3 Sur 5 Sur 0 -- -- 94
2020-01-12 21:00:00 0.9 3 Sur 5 Sur 0 -- -- 92
2020-01-12 20:00:00 1.3 3 Sur 5 Sur 0 -- -- 93
2020-01-12 19:00:00 2.1 2 Sudoeste 5 Sur 0 -- -- 89
2020-01-12 18:00:00 3.4 3 Sur 6 Sudoeste 0 -- -- 83
2020-01-12 17:00:00 5.4 3 Sudoeste 4 Oeste 0 -- -- 76
2020-01-12 16:00:00 7.8 3 Sudoeste 10 Sudoeste 0 -- -- 64
2020-01-12 15:00:00 11.1 6 Sudoeste 9 Sudoeste 0 -- -- 50
2020-01-12 14:00:00 11.6 2 Sur 4 Sudoeste 0 -- -- 39
2020-01-12 13:00:00 8.3 0 Calma 3 Sudoeste 0 -- -- 47
2020-01-12 12:00:00 3.9 2 Sur 4 Norte 0 -- -- 72
2020-01-12 11:00:00 -0.9 2 Sur 5 Sudoeste 0 -- -- 91
2020-01-12 10:00:00 -1.7 3 Sur 6 Sur 0 -- -- 91
2020-01-12 09:00:00 -2 3 Sur 6 Sur 0 -- -- 93
2020-01-12 08:00:00 -2.1 3 Sur 5 Sur 0 -- -- 93
2020-01-12 07:00:00 -1.9 0 Calma 7 Sur 0 -- -- 93
2020-01-12 06:00:00 -1.6 3 Sur 8 Sur 0 -- -- 94
2020-01-12 05:00:00 -0.9 3 Sur 6 Sur 0 -- -- 92
2020-01-12 04:00:00 -0.5 3 Sur 6 Sudoeste 0 -- -- 95
2020-01-12 03:00:00 -0.1 3 Sur 6 Sur 0 -- -- 94
2020-01-12 02:00:00 -0.6 3 Sur 7 Sur 0 -- -- 98
2020-01-12 01:00:00 -0.7 2 Sur 5 Sur 0 -- -- 98
2020-01-12 00:00:00 -0.7 2 Sur 4 Sur 0 -- -- 97
2020-01-11 23:00:00 -0.2 2 Sur 5 Sudeste 0 -- -- 97
2020-01-11 22:00:00 0.3 0 Calma 5 Sudoeste 0 -- -- 95
2020-01-11 21:00:00 0.7 0 Calma -- -- 0 -- -- 94
2020-01-11 20:00:00 1.6 0 Calma -- -- 0 -- -- 93
2020-01-11 19:00:00 2.5 0 Calma -- -- 0 -- -- 89
2020-01-11 18:00:00 4 0 Calma 3 Sudoeste 0 -- -- 85
2020-01-11 17:00:00 5.3 2 Sudoeste 5 Oeste 0 -- -- 76
2020-01-11 16:00:00 7.2 3 Sudoeste 6 Oeste 0 -- -- 64
2020-01-11 15:00:00 11 3 Oeste 6 Sudoeste 0 -- -- 53
2020-01-11 14:00:00 8.8 2 Norte 4 Norte 0 -- -- 57
2020-01-11 13:00:00 8.3 0 Calma 4 Norte 0 -- -- 48
2020-01-11 12:00:00 4.4 0 Calma 4 Sur 0 -- -- 79
2020-01-11 11:00:00 -0.4 3 Sur 5 Sur 0 -- -- 98
2020-01-11 10:00:00 -1.5 3 Sur 5 Sur 0 -- -- 97
2020-01-11 09:00:00 -1.6 3 Sur 5 Sur 0 -- -- 97
2020-01-11 08:00:00 -1.7 2 Sur 6 Sur 0 -- -- 99
2020-01-11 07:00:00 -1.7 3 Sur 6 Sur 0 -- -- 99
2020-01-11 06:00:00 -1.6 0 Calma -- -- 0 -- -- 100
2020-01-11 05:00:00 -1.5 0 Calma -- -- 0 -- -- 100
2020-01-11 04:00:00 -1.1 0 Calma -- -- 0 -- -- 100
2020-01-11 03:00:00 -1 0 Calma -- -- 0 -- -- 100
2020-01-11 02:00:00 -0.9 0 Calma -- -- 0 -- -- 100
2020-01-11 01:00:00 -0.7 0 Calma -- -- 0 -- -- 100
2020-01-11 00:00:00 -0.3 0 Calma 4 Sur 0 -- -- 100
2020-01-10 23:00:00 0.1 2 Sur 4 Sur 0 -- -- 99
2020-01-10 22:00:00 0.7 0 Calma 3 Sur 0 -- -- 98
2020-01-10 21:00:00 1.5 0 Calma 5 Oeste 0 -- -- 96
2020-01-10 20:00:00 2.9 0 Calma 5 Sur 0 -- -- 95
2020-01-10 19:00:00 4.2 0 Calma 4 Sudoeste 0 -- -- 91
2020-01-10 18:00:00 6.3 0 Calma 4 Norte 0 -- -- 88
2020-01-10 17:00:00 6.9 0 Calma 14 Norte 0 -- -- 84
2020-01-10 16:00:00 7.4 9 Norte 15 Norte 0 -- -- 81
2020-01-10 15:00:00 7.5 3 Norte 13 Norte 0 -- -- 71
2020-01-10 14:00:00 7.1 5 Norte 13 Norte 0 -- -- 76
2020-01-10 13:00:00 6.3 0 Calma 6 Noroeste 0 -- -- 87
2020-01-10 12:00:00 5.3 0 Calma 8 Norte 0 -- -- 93
2020-01-10 11:00:00 4.4 2 Sudoeste 5 Noroeste 0.2 -- -- 98
2020-01-10 10:00:00 3.7 3 Sur 5 Nordeste 0 -- -- 100
2020-01-10 09:00:00 3.3 0 Calma -- -- 0 -- -- 100
2020-01-10 08:00:00 3.1 0 Calma 4 Sudoeste 0 -- -- 100
2020-01-10 07:00:00 3.3 0 Calma 4 Sur 0.2 -- -- 99
2020-01-10 06:00:00 3 2 Norte 6 Noroeste 0.2 -- -- 99
2020-01-10 05:00:00 2.6 0 Calma 5 Sur 0 -- -- 96
2020-01-10 04:00:00 3 3 Noroeste 8 Oeste 0 -- -- 94
2020-01-10 03:00:00 3.5 5 Norte 13 Norte 0 -- -- 92
2020-01-10 02:00:00 4.5 5 Norte 21 Nordeste 0.2 -- -- 88
2020-01-10 01:00:00 4.7 2 Norte 10 Sur 0.2 -- -- 96
2020-01-10 00:00:00 4.9 3 Norte 6 Noroeste 0 -- -- 93
2020-01-09 23:00:00 5.6 3 Norte 18 Sudeste 0 -- -- 86
2020-01-09 22:00:00 6.4 4 Sur 30 Este 0 -- -- 77
2020-01-09 21:00:00 5.9 3 Sur 13 Nordeste 0 -- -- 78
2020-01-09 20:00:00 5.9 0 Calma 18 Norte 0 -- -- 80
2020-01-09 19:00:00 8.1 7 Norte 42 Nordeste 0 -- -- 66
2020-01-09 18:00:00 8.7 16 Este 51 Este 0.4 -- -- 66
2020-01-09 17:00:00 9 10 Nordeste 49 Sudeste 0.8 -- -- 73
2020-01-09 16:00:00 10.8 18 Este 48 Este 1.4 -- -- 70
2020-01-09 15:00:00 15.6 5 Sudeste 27 Sudeste 0 -- -- 49
2020-01-09 14:00:00 15.9 10 Sudeste 48 Este 0 -- -- 50
2020-01-09 13:00:00 16.5 20 Sur 48 Sudeste 0 -- -- 48
2020-01-09 12:00:00 16 10 Sudeste 23 Sudoeste 0 -- -- 57
2020-01-09 11:00:00 13.9 9 Sur 26 Sur 0 -- -- 68
2020-01-09 10:00:00 12.6 9 Sur 32 Sudoeste 0 -- -- 71
2020-01-09 09:00:00 8 7 Sur 23 Sur 0 -- -- 96
2020-01-09 08:00:00 3.8 3 Sur 7 Sudeste 0 -- -- 100
2020-01-09 07:00:00 4.6 3 Sur 6 Sur 0 -- -- 99
2020-01-09 06:00:00 5.4 2 Sudeste 7 Sudeste 0 -- -- 99
2020-01-09 05:00:00 5.5 3 Este 6 Sudeste 0 -- -- 100
2020-01-09 04:00:00 4.8 2 Sur 7 Este 0 -- -- 100
2020-01-09 03:00:00 4.7 2 Sudoeste 6 Sudoeste 0 -- -- 99
2020-01-09 02:00:00 4.3 3 Sur 5 Sudoeste 0 -- -- 100
2020-01-09 01:00:00 4.5 0 Calma 4 Sudeste 0 -- -- 99
2020-01-09 00:00:00 3.9 0 Calma 5 Sur 0 -- -- 99
2020-01-08 23:00:00 3.8 2 Norte 5 Sudeste 0 -- -- 98
2020-01-08 22:00:00 3.7 2 Sur 6 Sur 0 -- -- 97
2020-01-08 21:00:00 3.9 0 Calma 6 Sur 0 -- -- 95
2020-01-08 20:00:00 4.6 2 Sudeste 7 Sur 0 -- -- 93
2020-01-08 19:00:00 5.7 0 Calma 6 Sur 0 -- -- 90
2020-01-08 18:00:00 7.3 3 Sur 4 Sur 0 -- -- 85
2020-01-08 17:00:00 9.9 3 Sur 5 Sur 0 -- -- 76
2020-01-08 16:00:00 12 3 Sur 5 Sudoeste 0 -- -- 66
2020-01-08 15:00:00 15.2 2 Oeste 5 Norte 0 -- -- 56
2020-01-08 14:00:00 14.1 3 Norte 4 Norte 0 -- -- 50
2020-01-08 13:00:00 12.6 3 Sur 4 Sudoeste 0 -- -- 57
2020-01-08 12:00:00 8 0 Calma 3 Sur 0 -- -- 79
2020-01-08 11:00:00 2.5 0 Calma 4 Sur 0 -- -- 98
2020-01-08 10:00:00 2.3 0 Calma 4 Sudoeste 0 -- -- 96
2020-01-08 09:00:00 2.8 0 Calma -- -- 0 -- -- 95
2020-01-08 08:00:00 2.6 0 Calma -- -- 0 -- -- 96
2020-01-08 07:00:00 2.8 0 Calma -- -- 0 -- -- 93
2020-01-08 06:00:00 4.2 0 Calma -- -- 0 -- -- 91
2020-01-08 05:00:00 4.8 0 Calma -- -- 0 -- -- 93
2020-01-08 04:00:00 3.6 0 Calma 4 Sur 0 -- -- 96
2020-01-08 03:00:00 2.1 2 Sur 5 Sudoeste 0 -- -- 95
2020-01-08 02:00:00 2.2 2 Sur 6 Sur 0 -- -- 94
2020-01-08 01:00:00 2.9 3 Sur 5 Sur 0 -- -- 93
2020-01-08 00:00:00 3.1 0 Calma 3 Sudoeste 0 -- -- 94
2020-01-07 23:00:00 2.6 2 Sur 5 Sudoeste 0 -- -- 92
2020-01-07 22:00:00 1.8 0 Calma 6 Sur 0 -- -- 91
2020-01-07 21:00:00 2.3 2 Sur 5 Sur 0 -- -- 88
2020-01-07 20:00:00 2.7 0 Calma 4 Sur 0 -- -- 88
2020-01-07 19:00:00 3.6 3 Sur 6 Sur 0 -- -- 86
2020-01-07 18:00:00 4.8 3 Sur 6 Sudoeste 0 -- -- 81
2020-01-07 17:00:00 6.5 4 Sur 6 Sur 0 -- -- 75
2020-01-07 16:00:00 9.4 0 Calma 7 Oeste 0 -- -- 58
2020-01-07 15:00:00 13.5 3 Oeste 5 Oeste 0 -- -- 45
2020-01-07 14:00:00 13.4 0 Calma -- -- 0 -- -- 45
2020-01-07 13:00:00 9.9 0 Calma -- -- 0 -- -- 52
2020-01-07 12:00:00 4.9 0 Calma -- -- 0 -- -- 78
2020-01-07 11:00:00 0.2 0 Calma -- -- 0 -- -- 96
2020-01-07 10:00:00 -0.1 0 Calma 5 Sur 0 -- -- 91
2020-01-07 09:00:00 -0.4 2 Sur 5 Sur 0 -- -- 91
2020-01-07 08:00:00 -0.8 0 Calma 6 Sur 0 -- -- 93
2020-01-07 07:00:00 -0.9 3 Sur 5 Sudoeste 0 -- -- 92
2020-01-07 06:00:00 -1.2 0 Calma 5 Sur 0 -- -- 96
2020-01-07 05:00:00 -1.5 2 Sur 4 Sur 0 -- -- 96
2020-01-07 04:00:00 -1.3 0 Calma 8 Sur 0 -- -- 94
2020-01-07 03:00:00 -1.1 2 Sur 6 Sur 0 -- -- 94
2020-01-07 02:00:00 -1 2 Sur 6 Sur 0 -- -- 94
2020-01-07 01:00:00 -1.1 3 Sur 6 Sur 0 -- -- 95
2020-01-07 00:00:00 -0.9 4 Sur 6 Sur 0 -- -- 96
2020-01-06 23:00:00 -0.3 3 Sur 5 Sur 0 -- -- 94
2020-01-06 22:00:00 0.1 2 Sur 6 Sur 0 -- -- 95
2020-01-06 21:00:00 0.2 0 Calma 4 Sur 0 -- -- 95
2020-01-06 20:00:00 1 0 Calma 4 Sudoeste 0 -- -- 93
2020-01-06 19:00:00 1.9 4 Sur 9 Sur 0 -- -- 90
2020-01-06 18:00:00 3.4 4 Sur 9 Sur 0 -- -- 86
2020-01-06 17:00:00 5 3 Sudeste 5 Sur 0 -- -- 83
2020-01-06 16:00:00 7.3 3 Sur 4 Oeste 0 -- -- 73
2020-01-06 15:00:00 10.1 3 Sudeste 8 Norte 0 -- -- 56
2020-01-06 14:00:00 9.6 3 Norte 5 Norte 0 -- -- 66
2020-01-06 13:00:00 8.9 2 Nordeste 12 Sur 0 -- -- 58
2020-01-06 12:00:00 5.5 4 Sur 10 Sur 0 -- -- 81
2020-01-06 11:00:00 0.4 0 Calma 7 Sur 0 -- -- 98
2020-01-06 10:00:00 -0.6 3 Sur 9 Sur 0 -- -- 99